Fairbanks, AK

3:46 PM AKDT on July 04, 2015 (GMT -0800)
19th and Kennedy | | Change Station
CLOSE
Current Station
Personal Weather Station
Location: Fairbanks, AK
Elevation: 440 ft
Nearby Weather Stations

Elev 440 ft 64.83 °N, 147.80 °W | Updated 6 minutes ago

Partly Cloudy
Partly Cloudy
80.2 °F
Feels Like 80 °F
N
4.7
Wind Variable Wind from South

Today
High -- | Low -- °F
--% Chance of Precip.
Yesterday
High -- | Low -- °F
Precip. -- in
3:18 AM 0:30 AM
Waning Gibbous, 89% visible
Pressure 30.04 in
Visibility 10.0 miles
Clouds Few 8000 ft
Heat Index 80 °F
Dew Point 51 °F
Humidity 36%
Rainfall 0.00 in
Snow Depth Not available.
UV 6 out of 12
Pollen Not available.
Air Quality Not available.
Flu Activity Not available.
METAR PAFB 042256Z AUTO 14011G15KT 10SM FEW080 27/07 A3003 RMK SLP170 T02720072 VIA AUTODIAL

More Conditions Fewer Conditions

Pressure 30.04 in
Visibility 10.0 miles
Clouds Few 8000 ft
Heat Index 80 °F
Dew Point 51 °F
Humidity 36%
Rainfall 0.00 in
Snow Depth Not available.
UV 6 out of 12
Pollen Not available.
Air Quality Not available.
Flu Activity Not available.
METAR PAFB 042256Z AUTO 14011G15KT 10SM FEW080 27/07 A3003 RMK SLP170 T02720072 VIA AUTODIAL

More Conditions Fewer Conditions

10-Day Weather Forecast

×

Almanac

Astronomy

Jul. 04, 2015 Rise Set
Actual Time
Civil Twilight
Nautical Twilight
Astronomical Twilight
Moon
Length of Visible Light
Length of Day
Tomorrow will be .
, % of the Moon is Illuminated

Today's Extremes

State Highs State Lows

Community

WunderPhotos

Upload Photos

1,835,117 photos uploaded!

WunderBlogs® & News

Nearby

Air Quality

  Air Quality AQ Index Pollutant
Not available.

Snow Depth

Station Depth Elevation

Earthquake Activity

City Distance Mag. Time & Date
Minimum magnitude displayed is 2.5.

Coastal Water Temperatures

Place Temperature

Stations

Nearby Weather Stations

Station Location Temp. Windchill Dew Point Humidity Wind Precip. Elev Updated Type